sensor_id;sensor_type;location;lat;lon;timestamp;pressure;altitude;pressure_sealevel;temperature;humidity
55763;BME280;42162;51.958;5.426;2023-09-18T00:01:16;100670.53;;;19.59;85.68
55763;BME280;42162;51.958;5.426;2023-09-18T00:03:47;100661.97;;;19.55;86.01
55763;BME280;42162;51.958;5.426;2023-09-18T00:06:14;100648.88;;;19.54;85.81
55763;BME280;42162;51.958;5.426;2023-09-18T00:08:41;100647.00;;;19.56;85.82
55763;BME280;42162;51.958;5.426;2023-09-18T00:11:09;100629.41;;;19.56;86.19
55763;BME280;42162;51.958;5.426;2023-09-18T00:13:37;100617.19;;;19.55;85.86
55763;BME280;42162;51.958;5.426;2023-09-18T00:16:04;100616.22;;;19.56;85.89
55763;BME280;42162;51.958;5.426;2023-09-18T00:18:31;100622.34;;;19.57;86.01
55763;BME280;42162;51.958;5.426;2023-09-18T00:20:59;100616.22;;;19.56;85.91
55763;BME280;42162;51.958;5.426;2023-09-18T00:23:26;100604.84;;;19.56;86.18
55763;BME280;42162;51.958;5.426;2023-09-18T00:25:53;100601.41;;;19.55;85.79
55763;BME280;42162;51.958;5.426;2023-09-18T00:28:21;100596.22;;;19.54;86.19
55763;BME280;42162;51.958;5.426;2023-09-18T00:30:49;100599.78;;;19.53;86.21
55763;BME280;42162;51.958;5.426;2023-09-18T00:33:17;100593.78;;;19.51;85.77
55763;BME280;42162;51.958;5.426;2023-09-18T00:35:48;100593.88;;;19.49;86.05
55763;BME280;42162;51.958;5.426;2023-09-18T00:38:15;100589.56;;;19.48;86.25
55763;BME280;42162;51.958;5.426;2023-09-18T00:40:43;100583.66;;;19.45;86.29
55763;BME280;42162;51.958;5.426;2023-09-18T00:43:10;100582.91;;;19.42;86.29
55763;BME280;42162;51.958;5.426;2023-09-18T00:45:43;100576.13;;;19.38;86.28
55763;BME280;42162;51.958;5.426;2023-09-18T00:48:11;100570.78;;;19.40;86.32
55763;BME280;42162;51.958;5.426;2023-09-18T00:50:39;100554.25;;;19.38;86.18
55763;BME280;42162;51.958;5.426;2023-09-18T00:53:11;100546.34;;;19.38;86.11
55763;BME280;42162;51.958;5.426;2023-09-18T00:55:39;100537.50;;;19.39;86.52
55763;BME280;42162;51.958;5.426;2023-09-18T00:58:07;100526.84;;;19.40;86.40
55763;BME280;42162;51.958;5.426;2023-09-18T01:00:34;100528.53;;;19.41;86.17
55763;BME280;42162;51.958;5.426;2023-09-18T01:03:02;100518.88;;;19.42;86.28
55763;BME280;42162;51.958;5.426;2023-09-18T01:08:40;100512.09;;;19.38;85.91
55763;BME280;42162;51.958;5.426;2023-09-18T01:11:16;100499.13;;;19.35;86.25
55763;BME280;42162;51.958;5.426;2023-09-18T01:13:58;100499.25;;;19.33;86.44
55763;BME280;42162;51.958;5.426;2023-09-18T01:16:38;100497.44;;;19.34;86.52
55763;BME280;42162;51.958;5.426;2023-09-18T01:19:06;100503.66;;;19.33;86.33
55763;BME280;42162;51.958;5.426;2023-09-18T01:21:33;100487.16;;;19.31;86.32
55763;BME280;42162;51.958;5.426;2023-09-18T01:24:00;100476.69;;;19.29;86.61
55763;BME280;42162;51.958;5.426;2023-09-18T01:26:27;100470.69;;;19.27;86.45
55763;BME280;42162;51.958;5.426;2023-09-18T01:28:55;100461.97;;;19.26;86.51
55763;BME280;42162;51.958;5.426;2023-09-18T01:31:23;100455.88;;;19.26;86.80
55763;BME280;42162;51.958;5.426;2023-09-18T01:33:50;100451.31;;;19.28;86.80
55763;BME280;42162;51.958;5.426;2023-09-18T01:36:19;100443.41;;;19.28;86.72
55763;BME280;42162;51.958;5.426;2023-09-18T01:38:47;100447.66;;;19.31;86.88
55763;BME280;42162;51.958;5.426;2023-09-18T01:41:16;100438.91;;;19.30;87.00
55763;BME280;42162;51.958;5.426;2023-09-18T01:43:43;100447.72;;;19.29;86.66
55763;BME280;42162;51.958;5.426;2023-09-18T01:46:10;100455.63;;;19.29;86.74
55763;BME280;42162;51.958;5.426;2023-09-18T01:48:38;100454.88;;;19.27;87.03
55763;BME280;42162;51.958;5.426;2023-09-18T01:51:13;100453.22;;;19.26;86.98
55763;BME280;42162;51.958;5.426;2023-09-18T01:53:41;100459.44;;;19.25;86.87
55763;BME280;42162;51.958;5.426;2023-09-18T01:56:08;100455.19;;;19.22;87.11
55763;BME280;42162;51.958;5.426;2023-09-18T01:58:35;100458.78;;;19.21;86.96
55763;BME280;42162;51.958;5.426;2023-09-18T02:01:02;100466.78;;;19.20;87.27
55763;BME280;42162;51.958;5.426;2023-09-18T02:03:31;100467.84;;;19.17;87.36
55763;BME280;42162;51.958;5.426;2023-09-18T02:06:18;100474.88;;;19.17;87.38
55763;BME280;42162;51.958;5.426;2023-09-18T02:08:45;100473.31;;;19.14;87.29
55763;BME280;42162;51.958;5.426;2023-09-18T02:11:13;100470.78;;;19.13;87.50
55763;BME280;42162;51.958;5.426;2023-09-18T02:13:40;100466.47;;;19.11;87.50
55763;BME280;42162;51.958;5.426;2023-09-18T02:16:07;100472.78;;;19.09;87.97
55763;BME280;42162;51.958;5.426;2023-09-18T02:18:34;100459.72;;;19.07;88.15
55763;BME280;42162;51.958;5.426;2023-09-18T02:21:01;100461.50;;;19.07;87.98
55763;BME280;42162;51.958;5.426;2023-09-18T02:23:28;100452.00;;;19.04;88.33
55763;BME280;42162;51.958;5.426;2023-09-18T02:25:56;100451.91;;;19.06;88.29
55763;BME280;42162;51.958;5.426;2023-09-18T02:28:24;100442.22;;;19.06;88.32
55763;BME280;42162;51.958;5.426;2023-09-18T02:30:51;100442.03;;;19.09;88.38
55763;BME280;42162;51.958;5.426;2023-09-18T02:33:18;100436.56;;;19.13;88.39
55763;BME280;42162;51.958;5.426;2023-09-18T02:35:45;100424.97;;;19.15;88.61
55763;BME280;42162;51.958;5.426;2023-09-18T02:38:13;100427.63;;;19.15;88.19
55763;BME280;42162;51.958;5.426;2023-09-18T02:40:40;100429.31;;;19.16;88.05
55763;BME280;42162;51.958;5.426;2023-09-18T02:43:07;100417.91;;;19.16;88.25
55763;BME280;42162;51.958;5.426;2023-09-18T02:45:34;100411.69;;;19.17;88.13
55763;BME280;42162;51.958;5.426;2023-09-18T02:48:01;100402.13;;;19.16;88.49
55763;BME280;42162;51.958;5.426;2023-09-18T02:50:28;100386.25;;;19.17;88.34
55763;BME280;42162;51.958;5.426;2023-09-18T02:52:55;100383.50;;;19.19;88.39
55763;BME280;42162;51.958;5.426;2023-09-18T02:55:22;100371.91;;;19.21;88.33
55763;BME280;42162;51.958;5.426;2023-09-18T02:57:50;100359.28;;;19.26;88.04
55763;BME280;42162;51.958;5.426;2023-09-18T03:00:17;100352.88;;;19.31;88.22
55763;BME280;42162;51.958;5.426;2023-09-18T03:02:59;100344.66;;;19.35;88.09
55763;BME280;42162;51.958;5.426;2023-09-18T03:05:26;100345.88;;;19.42;87.85
55763;BME280;42162;51.958;5.426;2023-09-18T03:07:53;100339.34;;;19.48;87.40
55763;BME280;42162;51.958;5.426;2023-09-18T03:10:20;100341.78;;;19.51;87.41
55763;BME280;42162;51.958;5.426;2023-09-18T03:12:48;100333.75;;;19.53;87.23
55763;BME280;42162;51.958;5.426;2023-09-18T03:15:15;100338.94;;;19.54;87.16
55763;BME280;42162;51.958;5.426;2023-09-18T03:17:42;100329.97;;;19.57;87.14
55763;BME280;42162;51.958;5.426;2023-09-18T03:20:10;100332.72;;;19.55;86.63
55763;BME280;42162;51.958;5.426;2023-09-18T03:22:37;100336.38;;;19.53;86.60
55763;BME280;42162;51.958;5.426;2023-09-18T03:25:05;100337.34;;;19.52;86.68
55763;BME280;42162;51.958;5.426;2023-09-18T03:27:32;100330.38;;;19.51;86.92
55763;BME280;42162;51.958;5.426;2023-09-18T03:29:59;100336.38;;;19.53;86.89
55763;BME280;42162;51.958;5.426;2023-09-18T03:32:26;100331.13;;;19.53;86.97
55763;BME280;42162;51.958;5.426;2023-09-18T03:34:53;100334.00;;;19.50;86.68
55763;BME280;42162;51.958;5.426;2023-09-18T03:37:21;100333.47;;;19.45;86.71
55763;BME280;42162;51.958;5.426;2023-09-18T03:39:48;100348.84;;;19.38;86.95
55763;BME280;42162;51.958;5.426;2023-09-18T03:42:15;100359.59;;;19.35;87.10
55763;BME280;42162;51.958;5.426;2023-09-18T03:44:43;100354.56;;;19.32;87.07
55763;BME280;42162;51.958;5.426;2023-09-18T03:47:10;100361.47;;;19.33;87.29
55763;BME280;42162;51.958;5.426;2023-09-18T03:49:37;100353.50;;;19.34;87.22
55763;BME280;42162;51.958;5.426;2023-09-18T03:52:04;100348.09;;;19.36;87.14
55763;BME280;42162;51.958;5.426;2023-09-18T03:54:31;100337.47;;;19.37;86.91
55763;BME280;42162;51.958;5.426;2023-09-18T03:56:58;100331.34;;;19.37;87.12
55763;BME280;42162;51.958;5.426;2023-09-18T03:59:25;100323.25;;;19.40;87.29
55763;BME280;42162;51.958;5.426;2023-09-18T04:01:52;100314.19;;;19.44;86.96
55763;BME280;42162;51.958;5.426;2023-09-18T04:04:19;100314.09;;;19.46;87.19
55763;BME280;42162;51.958;5.426;2023-09-18T04:06:46;100293.84;;;19.46;87.20
55763;BME280;42162;51.958;5.426;2023-09-18T04:09:17;100298.91;;;19.49;86.91
55763;BME280;42162;51.958;5.426;2023-09-18T04:11:45;100298.69;;;19.52;86.98
55763;BME280;42162;51.958;5.426;2023-09-18T04:14:13;100301.81;;;19.57;86.92
55763;BME280;42162;51.958;5.426;2023-09-18T04:16:41;100288.56;;;19.59;86.74
55763;BME280;42162;51.958;5.426;2023-09-18T04:19:09;100276.97;;;19.62;86.46
55763;BME280;42162;51.958;5.426;2023-09-18T04:21:37;100271.56;;;19.63;86.57
55763;BME280;42162;51.958;5.426;2023-09-18T04:24:04;100263.44;;;19.66;86.69
55763;BME280;42162;51.958;5.426;2023-09-18T04:26:32;100265.00;;;19.69;86.18
55763;BME280;42162;51.958;5.426;2023-09-18T04:29:00;100262.28;;;19.70;86.29
55763;BME280;42162;51.958;5.426;2023-09-18T04:31:30;100263.84;;;19.73;86.18
55763;BME280;42162;51.958;5.426;2023-09-18T04:33:58;100272.72;;;19.72;86.25
55763;BME280;42162;51.958;5.426;2023-09-18T04:36:25;100283.19;;;19.61;86.17
55763;BME280;42162;51.958;5.426;2023-09-18T04:38:52;100294.69;;;19.47;86.56
55763;BME280;42162;51.958;5.426;2023-09-18T04:41:21;100300.91;;;19.33;86.85
55763;BME280;42162;51.958;5.426;2023-09-18T04:43:51;100319.16;;;19.23;87.54
55763;BME280;42162;51.958;5.426;2023-09-18T04:46:23;100326.09;;;19.11;88.29
55763;BME280;42162;51.958;5.426;2023-09-18T04:48:51;100336.00;;;19.07;88.79
55763;BME280;42162;51.958;5.426;2023-09-18T04:51:19;100341.19;;;19.09;89.42
55763;BME280;42162;51.958;5.426;2023-09-18T04:53:46;100325.59;;;19.06;89.53
55763;BME280;42162;51.958;5.426;2023-09-18T04:56:13;100306.53;;;19.02;89.93
55763;BME280;42162;51.958;5.426;2023-09-18T04:58:40;100289.88;;;19.02;90.21
55763;BME280;42162;51.958;5.426;2023-09-18T05:01:07;100282.63;;;19.05;90.69
55763;BME280;42162;51.958;5.426;2023-09-18T05:03:37;100284.94;;;19.10;90.41
55763;BME280;42162;51.958;5.426;2023-09-18T05:06:09;100291.88;;;19.11;90.79
55763;BME280;42162;51.958;5.426;2023-09-18T05:08:36;100288.44;;;19.10;90.65
55763;BME280;42162;51.958;5.426;2023-09-18T05:11:04;100281.47;;;19.09;90.58
55763;BME280;42162;51.958;5.426;2023-09-18T05:13:31;100263.78;;;19.11;90.91
55763;BME280;42162;51.958;5.426;2023-09-18T05:15:58;100256.41;;;19.17;90.70
55763;BME280;42162;51.958;5.426;2023-09-18T05:18:25;100256.94;;;19.22;91.06
55763;BME280;42162;51.958;5.426;2023-09-18T05:20:52;100248.81;;;19.25;90.67
55763;BME280;42162;51.958;5.426;2023-09-18T05:23:20;100247.00;;;19.25;90.76
55763;BME280;42162;51.958;5.426;2023-09-18T05:25:47;100249.53;;;19.27;90.89
55763;BME280;42162;51.958;5.426;2023-09-18T05:28:15;100256.28;;;19.31;90.75
55763;BME280;42162;51.958;5.426;2023-09-18T05:30:42;100263.03;;;19.35;90.28
55763;BME280;42162;51.958;5.426;2023-09-18T05:33:09;100266.38;;;19.37;90.13
55763;BME280;42162;51.958;5.426;2023-09-18T05:35:42;100268.03;;;19.38;90.36
55763;BME280;42162;51.958;5.426;2023-09-18T05:38:13;100264.47;;;19.39;90.66
55763;BME280;42162;51.958;5.426;2023-09-18T05:40:41;100272.06;;;19.44;90.30
55763;BME280;42162;51.958;5.426;2023-09-18T05:43:08;100282.47;;;19.46;90.14
55763;BME280;42162;51.958;5.426;2023-09-18T05:45:37;100279.63;;;19.49;90.32
55763;BME280;42162;51.958;5.426;2023-09-18T05:48:06;100291.84;;;19.50;90.14
55763;BME280;42162;51.958;5.426;2023-09-18T05:50:34;100277.94;;;19.48;89.99
55763;BME280;42162;51.958;5.426;2023-09-18T05:53:05;100287.00;;;19.43;90.09
55763;BME280;42162;51.958;5.426;2023-09-18T05:55:33;100281.13;;;19.40;90.17
55763;BME280;42162;51.958;5.426;2023-09-18T05:58:01;100296.50;;;19.33;90.29
55763;BME280;42162;51.958;5.426;2023-09-18T06:00:30;100292.50;;;19.27;90.07
55763;BME280;42162;51.958;5.426;2023-09-18T06:02:58;100288.19;;;19.26;90.38
55763;BME280;42162;51.958;5.426;2023-09-18T06:05:26;100282.72;;;19.30;90.27
55763;BME280;42162;51.958;5.426;2023-09-18T06:07:53;100289.34;;;19.35;90.04
55763;BME280;42162;51.958;5.426;2023-09-18T06:10:20;100297.75;;;19.40;90.12
55763;BME280;42162;51.958;5.426;2023-09-18T06:12:48;100298.50;;;19.42;90.20
55763;BME280;42162;51.958;5.426;2023-09-18T06:15:15;100300.19;;;19.43;89.92
55763;BME280;42162;51.958;5.426;2023-09-18T06:17:43;100297.66;;;19.42;90.08
55763;BME280;42162;51.958;5.426;2023-09-18T06:20:11;100302.19;;;19.40;90.08
55763;BME280;42162;51.958;5.426;2023-09-18T06:22:43;100300.63;;;19.37;90.21
55763;BME280;42162;51.958;5.426;2023-09-18T06:25:10;100289.97;;;19.39;90.13
55763;BME280;42162;51.958;5.426;2023-09-18T06:27:38;100287.47;;;19.37;90.46
55763;BME280;42162;51.958;5.426;2023-09-18T06:30:06;100300.72;;;19.36;90.53
55763;BME280;42162;51.958;5.426;2023-09-18T06:32:33;100306.09;;;19.34;90.44
55763;BME280;42162;51.958;5.426;2023-09-18T06:35:01;100314.81;;;19.35;90.67
55763;BME280;42162;51.958;5.426;2023-09-18T06:37:29;100320.09;;;19.35;90.71
55763;BME280;42162;51.958;5.426;2023-09-18T06:39:57;100314.81;;;19.35;90.72
55763;BME280;42162;51.958;5.426;2023-09-18T06:42:24;100312.94;;;19.37;90.60
55763;BME280;42162;51.958;5.426;2023-09-18T06:44:58;100313.66;;;19.39;90.43
55763;BME280;42162;51.958;5.426;2023-09-18T06:47:25;100309.16;;;19.41;90.45
55763;BME280;42162;51.958;5.426;2023-09-18T06:49:52;100301.31;;;19.39;90.30
55763;BME280;42162;51.958;5.426;2023-09-18T06:52:19;100309.16;;;19.41;90.41
55763;BME280;42162;51.958;5.426;2023-09-18T06:54:46;100311.66;;;19.42;90.24
55763;BME280;42162;51.958;5.426;2023-09-18T06:57:13;100314.28;;;19.42;90.37
55763;BME280;42162;51.958;5.426;2023-09-18T06:59:40;100317.03;;;19.41;90.02
55763;BME280;42162;51.958;5.426;2023-09-18T07:02:07;100316.19;;;19.40;90.14
55763;BME280;42162;51.958;5.426;2023-09-18T07:04:35;100317.88;;;19.41;90.08
55763;BME280;42162;51.958;5.426;2023-09-18T07:07:02;100327.38;;;19.44;90.14
55763;BME280;42162;51.958;5.426;2023-09-18T07:09:29;100330.00;;;19.44;90.14
55763;BME280;42162;51.958;5.426;2023-09-18T07:11:56;100326.50;;;19.43;90.12
55763;BME280;42162;51.958;5.426;2023-09-18T07:14:23;100321.25;;;19.43;90.35
55763;BME280;42162;51.958;5.426;2023-09-18T07:16:50;100323.66;;;19.47;89.80
55763;BME280;42162;51.958;5.426;2023-09-18T07:19:18;100328.00;;;19.48;90.11
55763;BME280;42162;51.958;5.426;2023-09-18T07:21:45;100317.47;;;19.48;89.77
55763;BME280;42162;51.958;5.426;2023-09-18T07:24:11;100313.88;;;19.49;89.71
55763;BME280;42162;51.958;5.426;2023-09-18T07:26:45;100319.75;;;19.52;89.77
55763;BME280;42162;51.958;5.426;2023-09-18T07:29:14;100313.44;;;19.55;89.70
55763;BME280;42162;51.958;5.426;2023-09-18T07:31:43;100307.22;;;19.56;89.30
55763;BME280;42162;51.958;5.426;2023-09-18T07:34:10;100306.16;;;19.58;89.52
55763;BME280;42162;51.958;5.426;2023-09-18T07:36:40;100314.91;;;19.59;89.10
55763;BME280;42162;51.958;5.426;2023-09-18T07:39:07;100321.84;;;19.60;89.05
55763;BME280;42162;51.958;5.426;2023-09-18T07:41:34;100328.16;;;19.57;88.86
55763;BME280;42162;51.958;5.426;2023-09-18T07:44:01;100324.59;;;19.58;88.60
55763;BME280;42162;51.958;5.426;2023-09-18T07:46:28;100325.53;;;19.57;88.31
55763;BME280;42162;51.958;5.426;2023-09-18T07:48:55;100320.38;;;19.56;88.44
55763;BME280;42162;51.958;5.426;2023-09-18T07:51:23;100313.09;;;19.60;88.26
55763;BME280;42162;51.958;5.426;2023-09-18T07:53:50;100326.78;;;19.65;88.71
55763;BME280;42162;51.958;5.426;2023-09-18T07:56:17;100326.34;;;19.71;88.28
55763;BME280;42162;51.958;5.426;2023-09-18T07:58:46;100337.75;;;19.71;88.09
55763;BME280;42162;51.958;5.426;2023-09-18T08:01:14;100327.28;;;19.70;87.91
55763;BME280;42162;51.958;5.426;2023-09-18T08:03:43;100328.25;;;19.69;87.82
55763;BME280;42162;51.958;5.426;2023-09-18T08:06:10;100330.34;;;19.77;87.80
55763;BME280;42162;51.958;5.426;2023-09-18T08:08:38;100319.38;;;19.83;87.57
55763;BME280;42162;51.958;5.426;2023-09-18T08:11:08;100335.19;;;19.83;87.27
55763;BME280;42162;51.958;5.426;2023-09-18T08:13:38;100338.84;;;19.80;86.88
55763;BME280;42162;51.958;5.426;2023-09-18T08:16:06;100337.16;;;19.79;86.77
55763;BME280;42162;51.958;5.426;2023-09-18T08:18:33;100348.78;;;19.77;86.69
55763;BME280;42162;51.958;5.426;2023-09-18T08:21:02;100344.47;;;19.76;86.89
55763;BME280;42162;51.958;5.426;2023-09-18T08:23:29;100347.94;;;19.76;86.65
55763;BME280;42162;51.958;5.426;2023-09-18T08:25:56;100353.09;;;19.78;86.80
55763;BME280;42162;51.958;5.426;2023-09-18T08:28:24;100338.53;;;19.98;86.17
55763;BME280;42162;51.958;5.426;2023-09-18T08:30:51;100346.91;;;20.16;85.17
55763;BME280;42162;51.958;5.426;2023-09-18T08:33:19;100335.81;;;20.24;84.86
55763;BME280;42162;51.958;5.426;2023-09-18T08:35:47;100351.22;;;20.41;84.71
55763;BME280;42162;51.958;5.426;2023-09-18T08:38:16;100347.56;;;20.66;83.26
55763;BME280;42162;51.958;5.426;2023-09-18T08:40:44;100354.53;;;20.92;82.55
55763;BME280;42162;51.958;5.426;2023-09-18T08:43:14;100353.63;;;21.27;81.38
55763;BME280;42162;51.958;5.426;2023-09-18T08:45:55;100359.50;;;21.87;79.68
55763;BME280;42162;51.958;5.426;2023-09-18T08:48:29;100365.50;;;22.01;78.44
55763;BME280;42162;51.958;5.426;2023-09-18T08:51:04;100366.47;;;22.44;77.23
55763;BME280;42162;51.958;5.426;2023-09-18T08:53:33;100363.03;;;22.86;76.03
55763;BME280;42162;51.958;5.426;2023-09-18T08:56:02;100366.97;;;23.34;75.63
55763;BME280;42162;51.958;5.426;2023-09-18T08:58:35;100373.06;;;23.55;73.47
55763;BME280;42162;51.958;5.426;2023-09-18T09:01:04;100370.28;;;23.26;73.52
55763;BME280;42162;51.958;5.426;2023-09-18T09:03:33;100382.88;;;23.44;73.60
55763;BME280;42162;51.958;5.426;2023-09-18T09:06:01;100380.06;;;23.66;72.41
55763;BME280;42162;51.958;5.426;2023-09-18T09:08:29;100376.31;;;24.19;70.70
55763;BME280;42162;51.958;5.426;2023-09-18T09:10:56;100381.66;;;24.69;69.84
55763;BME280;42162;51.958;5.426;2023-09-18T09:13:26;100377.34;;;25.25;68.31
55763;BME280;42162;51.958;5.426;2023-09-18T09:16:10;100375.56;;;26.09;66.18
55763;BME280;42162;51.958;5.426;2023-09-18T09:18:47;100384.28;;;26.11;65.18
55763;BME280;42162;51.958;5.426;2023-09-18T09:21:15;100388.78;;;26.47;64.02
55763;BME280;42162;51.958;5.426;2023-09-18T09:23:53;100387.53;;;27.22;62.87
55763;BME280;42162;51.958;5.426;2023-09-18T09:26:21;100390.09;;;28.09;60.10
55763;BME280;42162;51.958;5.426;2023-09-18T09:28:52;100377.47;;;28.69;58.38
55763;BME280;42162;51.958;5.426;2023-09-18T09:31:27;100395.44;;;29.25;57.62
55763;BME280;42162;51.958;5.426;2023-09-18T09:33:54;100398.56;;;29.53;55.92
55763;BME280;42162;51.958;5.426;2023-09-18T09:36:23;100413.56;;;29.63;54.49
55763;BME280;42162;51.958;5.426;2023-09-18T09:38:57;100413.47;;;29.56;55.45
55763;BME280;42162;51.958;5.426;2023-09-18T09:41:26;100417.91;;;28.83;55.29
55763;BME280;42162;51.958;5.426;2023-09-18T09:43:57;100417.59;;;27.59;57.37
55763;BME280;42162;51.958;5.426;2023-09-18T09:46:25;100412.38;;;26.42;58.94
55763;BME280;42162;51.958;5.426;2023-09-18T09:49:04;100413.84;;;25.42;61.91
55763;BME280;42162;51.958;5.426;2023-09-18T09:51:32;100396.34;;;24.83;63.90
55763;BME280;42162;51.958;5.426;2023-09-18T09:54:01;100409.56;;;24.43;65.20
55763;BME280;42162;51.958;5.426;2023-09-18T09:59:07;100424.63;;;23.82;66.42
55763;BME280;42162;51.958;5.426;2023-09-18T10:01:35;100418.09;;;23.55;67.49
55763;BME280;42162;51.958;5.426;2023-09-18T10:04:09;100424.97;;;23.37;67.33
55763;BME280;42162;51.958;5.426;2023-09-18T10:06:37;100427.00;;;23.23;67.64
55763;BME280;42162;51.958;5.426;2023-09-18T10:09:06;100428.75;;;23.02;67.40
55763;BME280;42162;51.958;5.426;2023-09-18T10:11:38;100430.44;;;22.82;68.69
55763;BME280;42162;51.958;5.426;2023-09-18T10:14:22;100435.06;;;22.68;68.65
55763;BME280;42162;51.958;5.426;2023-09-18T10:16:53;100429.81;;;22.57;68.40
55763;BME280;42162;51.958;5.426;2023-09-18T10:19:32;100443.69;;;22.38;69.23
55763;BME280;42162;51.958;5.426;2023-09-18T10:22:06;100439.59;;;22.22;69.40
55763;BME280;42162;51.958;5.426;2023-09-18T10:24:40;100450.09;;;22.12;69.87
55763;BME280;42162;51.958;5.426;2023-09-18T10:27:12;100446.50;;;22.02;70.70
55763;BME280;42162;51.958;5.426;2023-09-18T10:29:41;100456.38;;;21.88;70.87
55763;BME280;42162;51.958;5.426;2023-09-18T10:32:08;100449.50;;;21.75;71.81
55763;BME280;42162;51.958;5.426;2023-09-18T10:34:36;100466.56;;;21.59;72.19
55763;BME280;42162;51.958;5.426;2023-09-18T10:37:04;100454.63;;;21.53;72.77
55763;BME280;42162;51.958;5.426;2023-09-18T10:39:38;100465.56;;;21.49;73.20
55763;BME280;42162;51.958;5.426;2023-09-18T10:42:09;100461.09;;;21.38;74.20
55763;BME280;42162;51.958;5.426;2023-09-18T10:44:37;100460.09;;;21.27;74.72
55763;BME280;42162;51.958;5.426;2023-09-18T10:47:09;100459.63;;;21.22;74.96
55763;BME280;42162;51.958;5.426;2023-09-18T10:49:37;100461.06;;;21.26;74.90
55763;BME280;42162;51.958;5.426;2023-09-18T10:52:05;100452.69;;;21.33;74.84
55763;BME280;42162;51.958;5.426;2023-09-18T10:54:32;100452.44;;;21.36;75.16
55763;BME280;42162;51.958;5.426;2023-09-18T10:57:00;100446.31;;;21.35;75.27
55763;BME280;42162;51.958;5.426;2023-09-18T10:59:29;100455.81;;;21.38;75.18
55763;BME280;42162;51.958;5.426;2023-09-18T11:02:03;100451.13;;;21.41;75.17
55763;BME280;42162;51.958;5.426;2023-09-18T11:04:34;100444.16;;;21.52;75.54
55763;BME280;42162;51.958;5.426;2023-09-18T11:07:01;100441.22;;;21.68;75.21
55763;BME280;42162;51.958;5.426;2023-09-18T11:09:31;100438.09;;;21.74;74.99
55763;BME280;42162;51.958;5.426;2023-09-18T11:22:36;100434.25;;;21.90;73.99
55763;BME280;42162;51.958;5.426;2023-09-18T11:28:02;100443.25;;;21.87;73.27
55763;BME280;42162;51.958;5.426;2023-09-18T11:30:30;100431.63;;;21.90;73.65
55763;BME280;42162;51.958;5.426;2023-09-18T11:32:57;100442.44;;;21.86;73.00
55763;BME280;42162;51.958;5.426;2023-09-18T11:35:25;100426.69;;;21.85;72.80
55763;BME280;42162;51.958;5.426;2023-09-18T11:38:03;100418.28;;;21.80;72.78
55763;BME280;42162;51.958;5.426;2023-09-18T11:40:34;100432.56;;;21.88;73.01
55763;BME280;42162;51.958;5.426;2023-09-18T11:45:59;100424.38;;;22.03;72.82
55763;BME280;42162;51.958;5.426;2023-09-18T11:48:27;100432.66;;;22.10;72.17
55763;BME280;42162;51.958;5.426;2023-09-18T11:50:57;100432.66;;;22.10;71.20
55763;BME280;42162;51.958;5.426;2023-09-18T11:53:27;100429.66;;;22.03;71.21
55763;BME280;42162;51.958;5.426;2023-09-18T11:55:54;100427.66;;;21.95;71.71
55763;BME280;42162;51.958;5.426;2023-09-18T11:58:22;100431.84;;;21.98;71.23
55763;BME280;42162;51.958;5.426;2023-09-18T12:00:50;100420.41;;;21.97;70.54
55763;BME280;42162;51.958;5.426;2023-09-18T12:03:21;100419.00;;;21.93;70.77
55763;BME280;42162;51.958;5.426;2023-09-18T12:05:57;100422.47;;;21.94;70.69
55763;BME280;42162;51.958;5.426;2023-09-18T12:08:25;100423.53;;;22.02;70.19
55763;BME280;42162;51.958;5.426;2023-09-18T12:10:58;100430.38;;;22.05;70.18
55763;BME280;42162;51.958;5.426;2023-09-18T12:13:25;100442.19;;;22.01;69.67
55763;BME280;42162;51.958;5.426;2023-09-18T12:15:57;100439.06;;;21.96;69.32
55763;BME280;42162;51.958;5.426;2023-09-18T12:18:25;100436.03;;;21.89;70.23
55763;BME280;42162;51.958;5.426;2023-09-18T12:20:56;100433.41;;;21.89;69.68
55763;BME280;42162;51.958;5.426;2023-09-18T12:23:26;100430.16;;;21.85;69.59
55763;BME280;42162;51.958;5.426;2023-09-18T12:25:59;100419.34;;;21.88;70.51
55763;BME280;42162;51.958;5.426;2023-09-18T12:28:27;100422.47;;;21.94;70.12
55763;BME280;42162;51.958;5.426;2023-09-18T12:30:56;100425.00;;;21.95;69.94
55763;BME280;42162;51.958;5.426;2023-09-18T12:33:23;100431.84;;;21.98;69.68
55763;BME280;42162;51.958;5.426;2023-09-18T12:35:51;100437.25;;;21.96;69.62
55763;BME280;42162;51.958;5.426;2023-09-18T12:38:19;100443.50;;;21.95;69.46
55763;BME280;42162;51.958;5.426;2023-09-18T12:40:51;100433.16;;;21.92;69.35
55763;BME280;42162;51.958;5.426;2023-09-18T12:43:20;100423.31;;;21.94;69.61
55763;BME280;42162;51.958;5.426;2023-09-18T12:45:49;100420.78;;;21.93;69.02
55763;BME280;42162;51.958;5.426;2023-09-18T12:48:17;100414.66;;;21.92;69.05
55763;BME280;42162;51.958;5.426;2023-09-18T12:50:44;100411.78;;;21.95;69.76
55763;BME280;42162;51.958;5.426;2023-09-18T12:53:13;100403.34;;;22.01;69.57
55763;BME280;42162;51.958;5.426;2023-09-18T12:55:41;100401.28;;;22.05;69.28
55763;BME280;42162;51.958;5.426;2023-09-18T12:58:12;100406.34;;;22.08;69.19
55763;BME280;42162;51.958;5.426;2023-09-18T13:00:50;100395.19;;;22.04;68.47
55763;BME280;42162;51.958;5.426;2023-09-18T13:03:17;100394.22;;;22.06;68.44
55763;BME280;42162;51.958;5.426;2023-09-18T13:05:45;100382.53;;;22.08;68.60
55763;BME280;42162;51.958;5.426;2023-09-18T13:08:13;100374.38;;;22.11;69.18
55763;BME280;42162;51.958;5.426;2023-09-18T13:10:42;100381.34;;;22.12;68.54
55763;BME280;42162;51.958;5.426;2023-09-18T13:13:21;100374.38;;;22.11;68.56
55763;BME280;42162;51.958;5.426;2023-09-18T13:15:49;100371.00;;;22.09;68.93
55763;BME280;42162;51.958;5.426;2023-09-18T13:18:21;100365.47;;;22.12;68.88
55763;BME280;42162;51.958;5.426;2023-09-18T13:20:52;100345.72;;;22.16;68.44